Time;durP1;ratioP1;P1;durP2;ratioP2;P2;SDS_P1;SDS_P2;PMS_P1;PMS_P2;Temp;Humidity;BMP_temperature;BMP_pressure;BME280_temperature;BME280_humidity;BME280_pressure;Samples;Min_cycle;Max_cycle;Signal;HPM_P1;HPM_P2
2023/02/21 02:14:18;;;;;;;1999.90;999.90;;;2.50;99.90;;;;;;5037828;28;20432;-67
2023/02/21 02:16:50;;;;;;;1999.90;999.90;;;2.50;99.90;;;;;;5048283;28;20448;-68
2023/02/21 02:19:47;;;;;;;1999.90;999.90;;;2.50;99.90;;;;;;5038023;28;20463;-68
2023/02/21 02:22:51;;;;;;;1999.90;999.90;;;2.50;99.90;;;;;;5032591;28;20453;-67
2023/02/21 02:25:33;;;;;;;1999.90;999.90;;;2.40;99.90;;;;;;5041767;28;20448;-68
2023/02/21 02:28:26;;;;;;;1999.90;999.90;;;2.50;99.90;;;;;;5040934;28;20531;-67
2023/02/21 02:31:29;;;;;;;1999.90;999.90;;;2.30;99.90;;;;;;5027390;28;20451;-68
2023/02/21 02:34:39;;;;;;;1999.90;999.90;;;2.20;99.90;;;;;;4976169;28;20461;-70
2023/02/21 02:37:14;;;;;;;1999.90;999.90;;;2.30;99.90;;;;;;5034358;28;20443;-68
2023/02/21 02:39:48;;;;;;;1999.90;999.90;;;2.30;99.90;;;;;;5036315;28;20452;-68
2023/02/21 02:42:22;;;;;;;1999.90;999.90;;;2.40;99.90;;;;;;5048734;28;20989;-69
2023/02/21 02:44:53;;;;;;;1999.90;999.90;;;2.40;99.90;;;;;;5043317;28;20810;-71
2023/02/21 02:47:25;;;;;;;1999.90;999.90;;;2.50;99.90;;;;;;5034478;28;20484;-68
2023/02/21 02:49:55;;;;;;;1999.90;999.90;;;2.50;99.90;;;;;;5034141;28;20444;-68
2023/02/21 02:52:22;;;;;;;1999.90;999.90;;;2.40;99.90;;;;;;5042901;28;20457;-68
2023/02/21 02:54:58;;;;;;;1999.90;999.90;;;2.40;99.90;;;;;;5042200;28;20444;-70
2023/02/21 02:57:25;;;;;;;1999.90;999.90;;;2.30;99.90;;;;;;5036059;28;20969;-69
2023/02/21 02:59:52;;;;;;;1999.90;999.90;;;2.20;99.90;;;;;;5039976;28;20433;-68
2023/02/21 03:02:45;;;;;;;1999.90;999.90;;;2.10;99.90;;;;;;5035842;28;20467;-69
2023/02/21 03:05:27;;;;;;;1999.90;999.90;;;2.20;99.90;;;;;;5045855;28;20445;-68
2023/02/21 03:08:00;;;;;;;1999.90;999.90;;;2.20;99.90;;;;;;5032658;28;20559;-68
2023/02/21 03:10:38;;;;;;;1999.90;999.90;;;2.20;99.90;;;;;;5031880;28;20507;-68
2023/02/21 03:13:12;;;;;;;1999.90;999.90;;;2.20;99.90;;;;;;5022390;28;20599;-68
2023/02/21 03:15:47;;;;;;;1999.90;999.90;;;2.20;99.90;;;;;;5037671;28;20449;-68
2023/02/21 03:18:18;;;;;;;1999.90;999.90;;;2.20;99.90;;;;;;5031183;28;20549;-69
2023/02/21 03:20:52;;;;;;;1999.90;999.90;;;2.20;99.90;;;;;;5031059;28;20441;-69
2023/02/21 03:23:21;;;;;;;1999.90;999.90;;;2.20;99.90;;;;;;5034075;28;20491;-69
2023/02/21 03:25:51;;;;;;;1999.90;999.90;;;2.10;99.90;;;;;;5043038;28;20475;-68
2023/02/21 03:28:19;;;;;;;1999.90;999.90;;;2.20;99.90;;;;;;5037653;28;20477;-68
2023/02/21 03:30:47;;;;;;;1999.90;999.90;;;2.10;99.90;;;;;;5031321;28;20445;-70
2023/02/21 03:33:14;;;;;;;1999.90;999.90;;;2.10;99.90;;;;;;5029499;28;20847;-68
2023/02/21 03:35:42;;;;;;;1999.90;999.90;;;2.20;99.90;;;;;;5042535;28;20464;-69
2023/02/21 03:38:10;;;;;;;1999.90;999.90;;;2.20;99.90;;;;;;5037236;28;21188;-68
2023/02/21 03:40:37;;;;;;;1999.90;999.90;;;2.20;99.90;;;;;;5048423;28;20831;-69
2023/02/21 03:43:06;;;;;;;1999.90;999.90;;;2.30;99.90;;;;;;5043576;28;20494;-69
2023/02/21 03:45:33;;;;;;;1999.90;999.90;;;2.30;99.90;;;;;;5037594;28;20934;-67
2023/02/21 03:48:00;;;;;;;1999.90;999.90;;;2.20;99.90;;;;;;5037777;28;20504;-70
2023/02/21 03:50:27;;;;;;;1999.90;999.90;;;2.10;99.90;;;;;;5045896;28;20802;-68
2023/02/21 03:52:54;;;;;;;1999.90;999.90;;;2.10;99.90;;;;;;5042127;28;20468;-69
2023/02/21 03:55:22;;;;;;;1999.90;999.90;;;2.10;99.90;;;;;;5050792;28;20551;-68
2023/02/21 03:57:49;;;;;;;1999.90;999.90;;;2.10;99.90;;;;;;5046999;28;20440;-68
2023/02/21 04:00:16;;;;;;;1999.90;999.90;;;2.00;99.90;;;;;;5033142;28;20532;-67
2023/02/21 04:02:43;;;;;;;1999.90;999.90;;;1.80;99.90;;;;;;5042136;28;20865;-68
2023/02/21 04:05:10;;;;;;;1999.90;999.90;;;1.70;99.90;;;;;;5041952;28;20447;-67
2023/02/21 04:07:36;;;;;;;1999.90;999.90;;;1.60;99.90;;;;;;5042438;28;20985;-70
2023/02/21 04:10:04;;;;;;;1999.90;999.90;;;1.60;99.90;;;;;;5043105;28;20440;-68
2023/02/21 04:12:32;;;;;;;1999.90;999.90;;;1.70;99.90;;;;;;5042707;28;20836;-70
2023/02/21 04:14:58;;;;;;;1999.90;999.90;;;1.80;99.90;;;;;;5044832;28;20445;-71
2023/02/21 04:17:25;;;;;;;1999.90;999.90;;;1.80;99.90;;;;;;5039102;28;20949;-68
2023/02/21 04:19:52;;;;;;;1999.90;999.90;;;1.80;99.90;;;;;;5038119;28;20437;-68
2023/02/21 04:22:19;;;;;;;1999.90;999.90;;;1.80;99.90;;;;;;5037686;28;20468;-70
2023/02/21 04:24:47;;;;;;;1999.90;999.90;;;1.90;99.90;;;;;;5041139;28;20467;-68
2023/02/21 04:27:14;;;;;;;1999.90;999.90;;;1.80;99.90;;;;;;5048574;28;20457;-69
2023/02/21 04:29:42;;;;;;;1999.90;999.90;;;1.90;99.90;;;;;;5044904;28;20537;-68
2023/02/21 04:32:10;;;;;;;1999.90;999.90;;;1.90;99.90;;;;;;5038695;28;20456;-68
2023/02/21 04:34:37;;;;;;;1999.90;999.90;;;1.90;99.90;;;;;;5037750;28;20819;-69
2023/02/21 04:37:04;;;;;;;1999.90;999.90;;;1.90;99.90;;;;;;5039670;28;20443;-69
2023/02/21 04:39:31;;;;;;;1999.90;999.90;;;1.80;99.90;;;;;;5047502;28;20456;-69
2023/02/21 04:41:57;;;;;;;1999.90;999.90;;;1.90;99.90;;;;;;5050401;28;20966;-69
2023/02/21 04:44:24;;;;;;;1999.90;999.90;;;1.80;99.90;;;;;;5043652;28;20447;-69
2023/02/21 04:46:53;;;;;;;1999.90;999.90;;;2.00;99.90;;;;;;5030053;28;20544;-70
2023/02/21 04:49:20;;;;;;;1999.90;999.90;;;1.90;99.90;;;;;;5047625;28;20495;-70
2023/02/21 04:51:47;;;;;;;1999.90;999.90;;;1.90;99.90;;;;;;5040931;28;20803;-68
2023/02/21 04:54:13;;;;;;;1999.90;999.90;;;1.70;99.90;;;;;;5025599;28;20448;-68
2023/02/21 04:56:40;;;;;;;1999.90;999.90;;;1.60;99.90;;;;;;5038682;28;20451;-68
2023/02/21 04:59:07;;;;;;;1999.90;999.90;;;1.70;99.90;;;;;;5040225;28;20448;-67
2023/02/21 05:01:34;;;;;;;1999.90;999.90;;;1.70;99.90;;;;;;5040580;28;20453;-70
2023/02/21 05:04:03;;;;;;;1999.90;999.90;;;1.60;99.90;;;;;;5049240;28;20478;-69
2023/02/21 05:06:31;;;;;;;1999.90;999.90;;;1.60;99.90;;;;;;5037028;28;21007;-68
2023/02/21 05:08:58;;;;;;;1999.90;999.90;;;1.70;99.90;;;;;;5038776;28;20996;-69
2023/02/21 05:11:26;;;;;;;1999.90;999.90;;;1.80;99.90;;;;;;5036392;28;20803;-70
2023/02/21 05:13:53;;;;;;;1999.90;999.90;;;1.90;99.90;;;;;;5037513;28;20451;-69
2023/02/21 05:16:20;;;;;;;1999.90;999.90;;;2.00;99.90;;;;;;5042707;28;20822;-67
2023/02/21 05:18:48;;;;;;;1999.90;999.90;;;2.10;99.90;;;;;;5035089;28;20815;-69
2023/02/21 05:21:19;;;;;;;1999.90;999.90;;;2.20;99.90;;;;;;5034072;28;20451;-69
2023/02/21 05:23:54;;;;;;;1999.90;999.90;;;2.20;99.90;;;;;;5030884;28;20519;-67
2023/02/21 05:26:23;;;;;;;1999.90;999.90;;;2.00;99.90;;;;;;5043124;28;20474;-70
2023/02/21 05:28:50;;;;;;;1999.90;999.90;;;1.80;99.90;;;;;;5035367;28;20526;-69
2023/02/21 05:31:17;;;;;;;1999.90;999.90;;;1.70;99.90;;;;;;5039140;28;20445;-69
2023/02/21 05:33:44;;;;;;;1999.90;999.90;;;1.70;99.90;;;;;;5032481;28;20481;-68
2023/02/21 05:36:11;;;;;;;1999.90;999.90;;;1.70;99.90;;;;;;5036942;28;20444;-67
2023/02/21 05:38:46;;;;;;;1999.90;999.90;;;1.70;99.90;;;;;;5040741;28;20443;-67
2023/02/21 05:41:14;;;;;;;1999.90;999.90;;;1.60;99.90;;;;;;5028533;28;20433;-70
2023/02/21 05:43:43;;;;;;;1999.90;999.90;;;1.50;99.90;;;;;;5037799;28;20478;-69
2023/02/21 05:46:20;;;;;;;1999.90;999.90;;;1.40;99.90;;;;;;5040294;28;20440;-67
2023/02/21 05:48:46;;;;;;;1999.90;999.90;;;1.50;99.90;;;;;;5035751;28;20488;-68
2023/02/21 05:51:13;;;;;;;1999.90;999.90;;;1.60;99.90;;;;;;5037950;28;20449;-70
2023/02/21 05:53:40;;;;;;;1999.90;999.90;;;1.60;99.90;;;;;;5040995;28;20981;-69
2023/02/21 05:56:08;;;;;;;1999.90;999.90;;;1.60;99.90;;;;;;5028029;28;21167;-68
2023/02/21 05:58:35;;;;;;;1999.90;999.90;;;1.70;99.90;;;;;;5040073;28;20456;-68
2023/02/21 06:01:02;;;;;;;1999.90;999.90;;;1.70;99.90;;;;;;5032816;28;20451;-67
2023/02/21 06:03:29;;;;;;;1999.90;999.90;;;1.50;99.90;;;;;;5037629;28;20467;-65
2023/02/21 06:05:56;;;;;;;1999.90;999.90;;;1.50;99.90;;;;;;5035428;28;20821;-68
2023/02/21 06:08:23;;;;;;;1999.90;999.90;;;1.60;99.90;;;;;;5028992;28;20562;-67
2023/02/21 06:10:49;;;;;;;1999.90;999.90;;;1.80;99.90;;;;;;5028887;28;20560;-67
2023/02/21 06:13:18;;;;;;;1999.90;999.90;;;1.80;99.90;;;;;;5027957;28;20476;-67
2023/02/21 06:15:45;;;;;;;1999.90;999.90;;;1.90;99.90;;;;;;5028672;28;20804;-68
2023/02/21 06:18:13;;;;;;;1999.90;999.90;;;1.90;99.90;;;;;;5029109;28;20459;-64
2023/02/21 06:20:39;;;;;;;1999.90;999.90;;;2.00;99.90;;;;;;5032761;28;20469;-67
2023/02/21 06:23:06;;;;;;;1999.90;999.90;;;1.90;99.90;;;;;;5033289;28;20456;-69
2023/02/21 06:25:33;;;;;;;1999.90;999.90;;;1.90;99.90;;;;;;5038167;28;20444;-68
2023/02/21 06:28:00;;;;;;;1999.90;999.90;;;1.80;99.90;;;;;;5034667;28;20441;-68
2023/02/21 06:30:28;;;;;;;1999.90;999.90;;;1.70;99.90;;;;;;5044118;28;20452;-70
2023/02/21 06:32:55;;;;;;;1999.90;999.90;;;1.70;99.90;;;;;;5042353;28;20472;-69
2023/02/21 06:35:21;;;;;;;1999.90;999.90;;;1.70;99.90;;;;;;5037596;28;20464;-68
2023/02/21 06:37:48;;;;;;;1999.90;999.90;;;1.70;99.90;;;;;;5042578;28;20437;-68
2023/02/21 06:40:15;;;;;;;1999.90;999.90;;;1.80;99.90;;;;;;5042638;28;20955;-70
2023/02/21 06:42:42;;;;;;;1999.90;999.90;;;1.80;99.90;;;;;;5033279;28;20459;-69
2023/02/21 06:45:09;;;;;;;1999.90;999.90;;;1.80;99.90;;;;;;5032926;28;20441;-68
2023/02/21 06:47:37;;;;;;;1999.90;999.90;;;1.80;99.90;;;;;;5038825;28;20455;-69
2023/02/21 06:50:04;;;;;;;1999.90;999.90;;;1.70;99.90;;;;;;5042180;28;20479;-70
2023/02/21 06:52:31;;;;;;;1999.90;999.90;;;1.70;99.90;;;;;;5035355;28;20464;-70
2023/02/21 06:54:58;;;;;;;1999.90;999.90;;;1.70;99.90;;;;;;5039854;28;20785;-69
2023/02/21 06:57:25;;;;;;;1999.90;999.90;;;1.90;99.90;;;;;;5046323;28;20559;-68
2023/02/21 06:59:51;;;;;;;1999.90;999.90;;;2.10;99.90;;;;;;5041534;28;20449;-69
2023/02/21 07:02:20;;;;;;;1999.90;999.90;;;2.10;99.90;;;;;;5047134;28;20878;-68
2023/02/21 07:04:48;;;;;;;1999.90;999.90;;;2.10;99.90;;;;;;5040567;28;20444;-68
2023/02/21 07:07:15;;;;;;;1999.90;999.90;;;2.20;99.90;;;;;;5035984;28;20445;-68
2023/02/21 07:09:42;;;;;;;1999.90;999.90;;;2.20;99.90;;;;;;5034826;28;20477;-70
2023/02/21 07:12:09;;;;;;;1999.90;999.90;;;2.20;99.90;;;;;;5039470;28;20464;-68
2023/02/21 07:14:36;;;;;;;1999.90;999.90;;;2.30;99.90;;;;;;5040693;28;20908;-68
2023/02/21 07:17:03;;;;;;;1999.90;999.90;;;2.40;99.90;;;;;;5042551;28;20448;-69
2023/02/21 07:19:29;;;;;;;1999.90;999.90;;;2.60;99.90;;;;;;5043910;28;20436;-68
2023/02/21 07:21:57;;;;;;;1999.90;999.90;;;2.60;99.90;;;;;;5044107;28;20471;-68
2023/02/21 07:24:24;;;;;;;1999.90;999.90;;;2.70;99.90;;;;;;5039318;28;20451;-68
2023/02/21 07:26:51;;;;;;;1999.90;999.90;;;2.80;99.90;;;;;;5046012;28;20451;-69
2023/02/21 07:29:18;;;;;;;1999.90;999.90;;;2.80;99.90;;;;;;5040331;28;20470;-70
2023/02/21 07:31:44;;;;;;;1999.90;999.90;;;2.90;99.90;;;;;;5043816;28;20457;-69
2023/02/21 07:34:12;;;;;;;1999.90;999.90;;;3.10;99.90;;;;;;5037404;28;21009;-68
2023/02/21 07:36:39;;;;;;;1999.90;999.90;;;3.20;99.90;;;;;;5039822;28;20436;-68
2023/02/21 07:39:07;;;;;;;1999.90;999.90;;;3.20;99.90;;;;;;5041014;28;20540;-70
2023/02/21 07:41:34;;;;;;;1999.90;999.90;;;3.30;99.90;;;;;;5040142;28;20453;-69
2023/02/21 07:44:01;;;;;;;1999.90;999.90;;;3.50;99.90;;;;;;5038642;28;20475;-68
2023/02/21 07:46:28;;;;;;;1999.90;999.90;;;3.60;99.90;;;;;;5050591;28;20467;-68
2023/02/21 07:48:55;;;;;;;1999.90;999.90;;;3.80;99.90;;;;;;5042047;28;20475;-68
2023/02/21 07:51:22;;;;;;;1999.90;999.90;;;3.80;99.90;;;;;;5040638;28;20448;-66
2023/02/21 07:53:49;;;;;;;1999.90;999.90;;;4.00;99.90;;;;;;5036792;28;20945;-69
2023/02/21 07:56:17;;;;;;;1999.90;999.90;;;4.10;99.90;;;;;;5040850;28;20444;-68
2023/02/21 07:58:44;;;;;;;1999.90;999.90;;;4.30;99.90;;;;;;5043179;28;20441;-69
2023/02/21 08:01:11;;;;;;;1999.90;999.90;;;4.50;99.90;;;;;;5036702;28;20461;-72
2023/02/21 08:03:39;;;;;;;1999.90;999.90;;;4.60;99.90;;;;;;5041195;28;20464;-68
2023/02/21 08:06:08;;;;;;;1999.90;999.90;;;4.70;99.90;;;;;;5047923;28;20472;-69
2023/02/21 08:08:35;;;;;;;1999.90;999.90;;;4.80;99.90;;;;;;5031954;28;20449;-70
2023/02/21 08:11:02;;;;;;;1999.90;999.90;;;4.90;99.90;;;;;;5033233;28;20821;-69
2023/02/21 08:13:30;;;;;;;1999.90;999.90;;;5.00;99.90;;;;;;5039295;28;20472;-68
2023/02/21 08:15:56;;;;;;;1999.90;999.90;;;5.20;99.90;;;;;;5044289;28;20455;-68
2023/02/21 08:18:24;;;;;;;1999.90;999.90;;;5.30;99.90;;;;;;5043457;28;20440;-70
2023/02/21 08:20:51;;;;;;;1999.90;999.90;;;5.50;99.90;;;;;;5036414;28;20439;-68
2023/02/21 08:23:18;;;;;;;1999.90;999.90;;;5.60;99.90;;;;;;5041535;28;20464;-68
2023/02/21 08:25:45;;;;;;;1999.90;999.90;;;5.80;99.90;;;;;;5051212;28;20792;-68
2023/02/21 08:28:12;;;;;;;1999.90;999.90;;;6.00;99.90;;;;;;5040091;28;20453;-67
2023/02/21 08:30:40;;;;;;;1999.90;999.90;;;6.30;99.90;;;;;;5034046;28;20977;-67
2023/02/21 08:33:07;;;;;;;1999.90;999.90;;;6.50;99.90;;;;;;5045076;28;21021;-67
2023/02/21 08:35:35;;;;;;;1999.90;999.90;;;6.80;99.90;;;;;;5044896;28;20833;-70
2023/02/21 08:38:02;;;;;;;1999.90;999.90;;;6.90;99.90;;;;;;5043766;28;20965;-68
2023/02/21 08:40:30;;;;;;;1999.90;999.90;;;7.20;99.90;;;;;;5038710;28;20441;-68
2023/02/21 08:42:59;;;;;;;1999.90;999.90;;;7.40;99.90;;;;;;5039785;28;20465;-67
2023/02/21 08:45:28;;;;;;;1999.90;999.90;;;7.60;99.90;;;;;;5039466;28;20965;-68
2023/02/21 08:47:57;;;;;;;1999.90;999.90;;;7.80;99.90;;;;;;5029914;28;20437;-67
2023/02/21 08:50:25;;;;;;;1999.90;999.90;;;8.20;99.90;;;;;;5029596;28;20476;-66
2023/02/21 08:52:53;;;;;;;1999.90;999.90;;;8.50;99.90;;;;;;5028816;28;20487;-69
2023/02/21 08:55:20;;;;;;;1999.90;999.90;;;8.80;99.90;;;;;;5046299;28;20455;-69
2023/02/21 08:57:49;;;;;;;1999.90;999.90;;;9.10;99.90;;;;;;5039833;28;20440;-68
2023/02/21 09:00:17;;;;;;;1999.90;999.90;;;9.40;99.90;;;;;;5034146;28;20433;-69
2023/02/21 09:02:43;;;;;;;1999.90;999.90;;;9.80;99.90;;;;;;5036119;28;20461;-69
2023/02/21 09:05:14;;;;;;;1999.90;999.90;;;10.10;99.90;;;;;;5032600;28;21164;-66
2023/02/21 09:07:41;;;;;;;1999.90;999.90;;;10.40;99.90;;;;;;5038984;28;20436;-69
2023/02/21 09:10:09;;;;;;;1999.90;999.90;;;10.60;99.90;;;;;;5032467;28;20990;-70
2023/02/21 09:12:36;;;;;;;1999.90;999.90;;;10.80;99.90;;;;;;5031152;28;20507;-68
2023/02/21 09:15:03;;;;;;;1999.90;999.90;;;11.20;99.90;;;;;;5031635;28;20506;-68
2023/02/21 09:17:32;;;;;;;1999.90;999.90;;;11.60;99.90;;;;;;5034072;28;20450;-69
2023/02/21 09:19:59;;;;;;;1999.90;999.90;;;11.90;99.90;;;;;;5029292;28;20506;-70
2023/02/21 09:22:30;;;;;;;1999.90;999.90;;;12.20;99.90;;;;;;5035916;28;20868;-68
2023/02/21 09:24:57;;;;;;;1999.90;999.90;;;12.50;99.90;;;;;;5038263;28;20536;-67
2023/02/21 09:27:35;;;;;;;1999.90;999.90;;;12.50;99.90;;;;;;5035989;28;20455;-66
2023/02/21 09:30:03;;;;;;;1999.90;999.90;;;12.60;99.90;;;;;;5030564;28;20473;-68
2023/02/21 09:32:30;;;;;;;1999.90;999.90;;;12.90;99.90;;;;;;5027526;28;20457;-67
2023/02/21 09:34:57;;;;;;;1999.90;999.90;;;13.10;99.90;;;;;;5028822;28;20453;-69
2023/02/21 09:37:24;;;;;;;1999.90;999.90;;;13.30;99.90;;;;;;5033202;28;20442;-68
2023/02/21 09:39:52;;;;;;;1999.90;999.90;;;13.50;99.90;;;;;;5031970;28;20479;-70
2023/02/21 09:42:22;;;;;;;1999.90;999.90;;;13.70;99.90;;;;;;5031499;28;20476;-69
2023/02/21 09:44:49;;;;;;;1999.90;999.90;;;13.90;99.90;;;;;;5030426;28;20569;-66
2023/02/21 09:47:25;;;;;;;1999.90;999.90;;;14.20;99.90;;;;;;5029767;28;20441;-67
2023/02/21 09:49:57;;;;;;;1999.90;999.90;;;14.50;99.90;;;;;;5032566;28;20543;-67
2023/02/21 09:52:30;;;;;;;1999.90;999.90;;;14.80;99.90;;;;;;5025329;28;21013;-66
2023/02/21 09:55:02;;;;;;;1999.90;999.90;;;15.10;99.90;;;;;;5026292;28;20826;-67
2023/02/21 09:57:28;;;;;;;1999.90;999.90;;;15.50;99.90;;;;;;5029919;28;20451;-67
2023/02/21 09:59:55;;;;;;;1999.90;999.90;;;15.80;99.90;;;;;;5033812;28;20443;-67
2023/02/21 10:02:36;;;;;;;1999.90;999.90;;;16.20;98.80;;;;;;5040857;28;20476;-65
2023/02/21 10:05:15;;;;;;;1999.90;999.90;;;16.50;98.20;;;;;;5047743;28;20472;-65
2023/02/21 10:07:50;;;;;;;1999.90;999.90;;;16.90;97.10;;;;;;5029328;28;20452;-66
2023/02/21 10:10:25;;;;;;;1999.90;999.90;;;17.30;96.40;;;;;;5036625;28;20571;-65
2023/02/21 10:12:58;;;;;;;1999.90;999.90;;;17.60;95.50;;;;;;5032740;28;20563;-66
2023/02/21 10:15:43;;;;;;;1999.90;999.90;;;17.90;94.00;;;;;;5034974;28;20486;-68
2023/02/21 10:18:22;;;;;;;1999.90;999.90;;;18.30;92.60;;;;;;5032366;28;20797;-67
2023/02/21 10:20:52;;;;;;;1999.90;999.90;;;18.30;92.30;;;;;;5028685;28;20536;-68
2023/02/21 10:23:24;;;;;;;1999.90;999.90;;;18.50;91.60;;;;;;5036958;28;20474;-66
2023/02/21 10:25:58;;;;;;;1999.90;999.90;;;18.80;91.20;;;;;;5046392;28;20857;-67
2023/02/21 10:28:26;;;;;;;1999.90;999.90;;;18.60;91.40;;;;;;5036162;28;20464;-68
2023/02/21 10:30:59;;;;;;;1999.90;999.90;;;18.40;92.20;;;;;;5032326;28;20495;-68
2023/02/21 10:33:27;;;;;;;1999.90;999.90;;;18.70;92.10;;;;;;5033709;28;21031;-66
2023/02/21 10:35:55;;;;;;;1999.90;999.90;;;18.30;90.80;;;;;;5040930;28;21055;-68
2023/02/21 10:38:25;;;;;;;1999.90;999.90;;;17.80;91.60;;;;;;5032993;28;20506;-67
2023/02/21 10:40:57;;;;;;;1999.90;999.90;;;17.80;92.20;;;;;;5035274;28;20448;-67
2023/02/21 10:43:28;;;;;;;1999.90;999.90;;;18.20;91.50;;;;;;5040912;28;20524;-67
2023/02/21 10:46:00;;;;;;;1999.90;999.90;;;18.30;91.50;;;;;;5036153;28;20453;-68
2023/02/21 10:48:32;;;;;;;1999.90;999.90;;;18.50;91.00;;;;;;5032809;28;20469;-66
2023/02/21 10:51:08;;;;;;;1999.90;999.90;;;18.80;91.30;;;;;;5032879;28;20464;-66
2023/02/21 10:53:37;;;;;;;1999.90;999.90;;;19.20;90.80;;;;;;5038959;28;20474;-66
2023/02/21 10:56:21;;;;;;;1999.90;999.90;;;19.80;89.60;;;;;;5041126;28;20448;-69
2023/02/21 10:58:50;;;;;;;1999.90;999.90;;;20.40;87.30;;;;;;5044622;28;20448;-67
2023/02/21 11:01:20;;;;;;;1999.90;999.90;;;20.90;86.50;;;;;;5047820;28;20917;-67
2023/02/21 11:03:50;;;;;;;1999.90;999.90;;;20.90;83.00;;;;;;5023515;28;20499;-70
2023/02/21 11:06:27;;;;;;;1999.90;999.90;;;21.10;84.00;;;;;;5029224;28;20500;-68
2023/02/21 11:08:54;;;;;;;1999.90;999.90;;;20.50;82.50;;;;;;5028315;28;20526;-69
2023/02/21 11:11:38;;;;;;;1999.90;999.90;;;20.30;83.20;;;;;;5027850;28;20480;-67
2023/02/21 11:14:21;;;;;;;1999.90;999.90;;;19.40;83.80;;;;;;5026236;28;20448;-67
2023/02/21 11:17:14;;;;;;;1999.90;999.90;;;19.60;87.40;;;;;;5030546;28;20458;-67
2023/02/21 11:19:53;;;;;;;1999.90;999.90;;;19.90;86.20;;;;;;5028011;28;20837;-67
2023/02/21 11:22:23;;;;;;;1999.90;999.90;;;20.40;84.50;;;;;;5027895;28;20468;-68
2023/02/21 11:25:01;;;;;;;1999.90;999.90;;;20.60;81.50;;;;;;5028506;28;20453;-69
2023/02/21 11:27:31;;;;;;;1999.90;999.90;;;21.20;81.70;;;;;;5028927;28;21024;-68
2023/02/21 11:30:00;;;;;;;1999.90;999.90;;;20.40;79.30;;;;;;5027699;28;20473;-67
2023/02/21 11:32:32;;;;;;;1999.90;999.90;;;20.60;84.90;;;;;;5026896;28;20488;-69
2023/02/21 11:35:05;;;;;;;1999.90;999.90;;;20.70;81.50;;;;;;5026698;28;20460;-67
2023/02/21 11:37:32;;;;;;;1999.90;999.90;;;21.50;79.00;;;;;;5027366;28;20978;-70
2023/02/21 11:40:00;;;;;;;1999.90;999.90;;;21.90;78.50;;;;;;5027375;28;20556;-68
2023/02/21 11:42:31;;;;;;;1999.90;999.90;;;22.60;77.80;;;;;;5026519;28;20476;-68
2023/02/21 11:45:12;;;;;;;1999.90;999.90;;;23.10;75.40;;;;;;5028516;28;20795;-68
2023/02/21 11:47:46;;;;;;;1999.90;999.90;;;23.70;72.20;;;;;;5027517;28;20449;-69
2023/02/21 11:50:18;;;;;;;1999.90;999.90;;;23.90;71.90;;;;;;5028219;28;21021;-70
2023/02/21 11:52:49;;;;;;;1999.90;999.90;;;24.60;71.60;;;;;;5025725;28;20564;-69
2023/02/21 11:55:18;;;;;;;1999.90;999.90;;;25.60;66.20;;;;;;5030341;28;20445;-68
2023/02/21 11:57:55;;;;;;;1999.90;999.90;;;25.90;64.50;;;;;;5028015;28;20828;-65
2023/02/21 12:00:28;;;;;;;1999.90;999.90;;;25.90;64.40;;;;;;5028747;28;20463;-67
2023/02/21 12:03:10;;;;;;;1999.90;999.90;;;26.10;60.30;;;;;;5026449;28;20897;-67
2023/02/21 12:05:53;;;;;;;1999.90;999.90;;;25.60;61.80;;;;;;5027475;28;20447;-68
2023/02/21 12:08:38;;;;;;;1999.90;999.90;;;26.00;61.30;;;;;;5029071;28;20477;-67
2023/02/21 12:11:36;;;;;;;1999.90;999.90;;;26.60;60.20;;;;;;5026753;28;20572;-67
2023/02/21 12:14:15;;;;;;;1999.90;999.90;;;27.10;58.90;;;;;;5026380;28;20645;-69
2023/02/21 12:16:54;;;;;;;1999.90;999.90;;;27.80;57.40;;;;;;5027928;28;20543;-68
2023/02/21 12:20:11;;;;;;;1999.90;999.90;;;27.60;55.80;;;;;;5029787;28;20456;-67
2023/02/21 12:22:51;;;;;;;1999.90;999.90;;;27.00;57.70;;;;;;4983377;28;21111;-68
2023/02/21 12:25:28;;;;;;;1999.90;999.90;;;25.10;58.90;;;;;;4986957;28;20573;-67
2023/02/21 12:28:04;;;;;;;1999.90;999.90;;;24.70;59.40;;;;;;5016514;28;20478;-67
2023/02/21 12:30:50;;;;;;;1999.90;999.90;;;23.60;61.20;;;;;;5026741;28;20484;-67
2023/02/21 12:33:27;;;;;;;1999.90;999.90;;;22.40;65.10;;;;;;5022674;28;20503;-67
2023/02/21 12:36:32;;;;;;;1999.90;999.90;;;21.30;67.00;;;;;;5023659;28;20483;-67
2023/02/21 12:39:11;;;;;;;1999.90;999.90;;;20.10;70.70;;;;;;5025954;28;21051;-66
2023/02/21 12:41:54;;;;;;;1999.90;999.90;;;19.20;72.70;;;;;;5024376;28;20449;-67
2023/02/21 12:44:24;;;;;;;1999.90;999.90;;;18.50;75.00;;;;;;5023344;28;20451;-68
2023/02/21 12:46:57;;;;;;;1999.90;999.90;;;18.10;77.40;;;;;;5023317;28;20845;-68
2023/02/21 12:49:28;;;;;;;1999.90;999.90;;;17.70;79.70;;;;;;5023463;28;20497;-68
2023/02/21 12:52:01;;;;;;;1999.90;999.90;;;17.40;78.80;;;;;;5024587;28;20490;-67
2023/02/21 12:54:38;;;;;;;1999.90;999.90;;;17.10;80.40;;;;;;5025580;28;20453;-66
2023/02/21 12:57:09;;;;;;;1999.90;999.90;;;17.00;83.40;;;;;;5028076;28;20467;-66
2023/02/21 12:59:48;;;;;;;1999.90;999.90;;;16.90;82.50;;;;;;5027038;28;20441;-67
2023/02/21 13:02:26;;;;;;;1999.90;999.90;;;16.90;83.60;;;;;;5027398;28;20998;-67
2023/02/21 13:04:56;;;;;;;1999.90;999.90;;;17.00;83.20;;;;;;5026638;28;20671;-68
2023/02/21 13:07:27;;;;;;;1999.90;999.90;;;16.90;85.40;;;;;;5024162;28;20468;-66
2023/02/21 13:09:59;;;;;;;1999.90;999.90;;;16.90;82.00;;;;;;5026601;28;20961;-68
2023/02/21 13:12:31;;;;;;;1999.90;999.90;;;16.90;85.30;;;;;;5026544;28;20499;-69
2023/02/21 13:15:02;;;;;;;1999.90;999.90;;;16.90;85.70;;;;;;5025632;28;20449;-66
2023/02/21 13:17:31;;;;;;;1999.90;999.90;;;16.90;85.30;;;;;;5027792;28;20599;-64
2023/02/21 13:20:04;;;;;;;1999.90;999.90;;;16.90;86.10;;;;;;5028401;28;20445;-70
2023/02/21 13:26:11;;;;;;;1999.90;999.90;;;16.80;86.60;;;;;;5027227;28;20408;-66
2023/02/21 13:28:40;;;;;;;1999.90;999.90;;;16.80;86.80;;;;;;5026979;28;20899;-67
2023/02/21 13:31:18;;;;;;;1999.90;999.90;;;16.80;87.10;;;;;;5026021;28;20550;-65
2023/02/21 13:33:51;;;;;;;1999.90;999.90;;;16.70;86.00;;;;;;5024302;28;20508;-67
2023/02/21 13:36:25;;;;;;;1999.90;999.90;;;16.60;84.10;;;;;;5027220;28;20533;-65
2023/02/21 13:39:02;;;;;;;1999.90;999.90;;;16.50;87.40;;;;;;5024934;28;20449;-67
2023/02/21 13:41:34;;;;;;;1999.90;999.90;;;16.50;87.50;;;;;;5027183;28;20850;-66
2023/02/21 13:44:07;;;;;;;1999.90;999.90;;;16.50;87.50;;;;;;5024857;28;20864;-66
2023/02/21 13:47:14;;;;;;;1999.90;999.90;;;16.40;87.90;;;;;;5025618;28;21073;-67
2023/02/21 13:49:49;;;;;;;1999.90;999.90;;;16.40;85.10;;;;;;5025530;28;20522;-65
2023/02/21 13:52:33;;;;;;;1999.90;999.90;;;16.30;86.20;;;;;;5025493;28;20494;-68
2023/02/21 13:55:25;;;;;;;1999.90;999.90;;;16.40;87.10;;;;;;5023217;28;20469;-64
2023/02/21 13:58:13;;;;;;;1999.90;999.90;;;16.30;87.40;;;;;;5023557;28;20460;-67
2023/02/21 14:00:52;;;;;;;1999.90;999.90;;;16.30;88.90;;;;;;5024811;28;20451;-68
2023/02/21 14:03:33;;;;;;;1999.90;999.90;;;16.30;87.60;;;;;;5023495;28;20479;-69
2023/02/21 14:06:36;;;;;;;1999.90;999.90;;;16.30;87.70;;;;;;5024740;28;20444;-70
2023/02/21 14:09:09;;;;;;;1999.90;999.90;;;16.30;88.00;;;;;;5024953;28;20931;-68
2023/02/21 14:11:43;;;;;;;1999.90;999.90;;;16.30;88.00;;;;;;5024682;28;20507;-67
2023/02/21 14:14:23;;;;;;;1999.90;999.90;;;16.30;87.40;;;;;;5024259;28;20447;-66
2023/02/21 14:16:53;;;;;;;1999.90;999.90;;;16.20;87.90;;;;;;5025196;28;20445;-65
2023/02/21 14:19:25;;;;;;;1999.90;999.90;;;16.20;89.10;;;;;;5025328;28;20441;-67
2023/02/21 14:22:01;;;;;;;1999.90;999.90;;;16.20;88.50;;;;;;5025281;28;20484;-67
2023/02/21 14:24:31;;;;;;;1999.90;999.90;;;16.30;88.50;;;;;;5024943;28;20476;-65
2023/02/21 14:27:04;;;;;;;1999.90;999.90;;;16.20;88.70;;;;;;5025746;28;20445;-67
2023/02/21 14:29:37;;;;;;;1999.90;999.90;;;16.20;87.80;;;;;;5026666;28;20464;-67
2023/02/21 14:32:25;;;;;;;1999.90;999.90;;;16.20;87.80;;;;;;5024791;28;20488;-68
2023/02/21 14:34:56;;;;;;;1999.90;999.90;;;16.20;90.00;;;;;;5024345;28;20973;-69
2023/02/21 14:37:30;;;;;;;1999.90;999.90;;;16.10;89.00;;;;;;5025469;28;20488;-68
2023/02/21 14:40:00;;;;;;;1999.90;999.90;;;16.20;88.30;;;;;;5025332;28;20524;-66
2023/02/21 14:42:46;;;;;;;1999.90;999.90;;;16.20;89.30;;;;;;5023890;28;20541;-67